Estación de Las Viñas

Ultimos registro cada 15 minutos 76
Estación Fecha / Hora Temperatura Humedad Lluvia Velocidad Dirección Radiación Presion
76 Las Viñas 03-09-2026 18:45 10,2 76 0 0 160 0 1026,6
75 Las Viñas 03-09-2026 18:30 10,9 74 0 0,4 180 0 1026,3
74 Las Viñas 03-09-2026 18:15 11,6 71 0 0 180 7 1026,4
73 Las Viñas 03-09-2026 18:00 12,3 68 0 0 155 12 1026,3
72 Las Viñas 03-09-2026 17:45 13 65 0 0 223 18 1026,3
71 Las Viñas 03-09-2026 17:30 14 63 0 0 216 21 1026,2
70 Las Viñas 03-09-2026 17:15 14,7 60 0 0,9 303 67 1026,3
69 Las Viñas 03-09-2026 17:00 15,2 58 0 1,3 175 158 1026,3
68 Las Viñas 03-09-2026 16:45 15,8 62 0 0,4 161 188 1026,1
67 Las Viñas 03-09-2026 16:30 15,9 58 0 0,4 210 193 1026,3
66 Las Viñas 03-09-2026 16:15 15,9 60 0 0,4 202 381 1026,3
65 Las Viñas 03-09-2026 16:00 15,6 64 0 0,4 231 373 1026,3
64 Las Viñas 03-09-2026 15:45 16,2 61 0 0,9 147 489 1026,3
63 Las Viñas 03-09-2026 15:30 16,3 61 0 0 167 519 1026,3
62 Las Viñas 03-09-2026 15:15 16,3 65 0 0 175 301 1026,2
61 Las Viñas 03-09-2026 15:00 16,3 67 0 0,4 96 606 1026,4
60 Las Viñas 03-09-2026 14:45 15,9 66 0 0,4 168 633 1026,7
59 Las Viñas 03-09-2026 14:30 15,6 69 0 0 131 670 1026,8
58 Las Viñas 03-09-2026 14:15 14,9 73 0 0 218 265 1026,7
57 Las Viñas 03-09-2026 14:00 14,4 70 0 0,9 133 675 1026,8
56 Las Viñas 03-09-2026 13:45 14,3 73 0 0,4 210 740 1027,3
55 Las Viñas 03-09-2026 13:30 13,5 74 0 0,4 143 758 1027,4
54 Las Viñas 03-09-2026 13:15 13,5 80 0 0,4 212 376 1027,7
53 Las Viñas 03-09-2026 13:00 13,2 80 0 0 168 316 1027,7
52 Las Viñas 03-09-2026 12:45 12,9 80 0 0 170 392 1027,8
51 Las Viñas 03-09-2026 12:30 12,2 81 0 0,4 206 292 1027,9
50 Las Viñas 03-09-2026 12:15 11,9 81 0 0 185 179 1027,9
49 Las Viñas 03-09-2026 12:00 11,7 84 0 1,8 153 165 1028
48 Las Viñas 03-09-2026 11:45 11,6 83 0 0,4 164 176 1028,1
47 Las Viñas 03-09-2026 11:30 12,2 84 0 0 231 229 1028
46 Las Viñas 03-09-2026 11:15 12,4 83 0 0,4 185 278 1028
45 Las Viñas 03-09-2026 11:00 11,5 85 0 0 185 241 1027,7
44 Las Viñas 03-09-2026 10:45 11,4 86 0 0,4 185 190 1027,8
43 Las Viñas 03-09-2026 10:30 11,1 86 0 0 224 318 1027,8
42 Las Viñas 03-09-2026 10:15 10,6 86 0 0 185 260 1027,5
41 Las Viñas 03-09-2026 10:00 10,1 85 0 0,4 158 297 1027,8
40 Las Viñas 03-09-2026 09:45 9,8 84 0 0,9 125 100 1027,7
39 Las Viñas 03-09-2026 09:30 9,7 80 0 0 153 134 1027,6
38 Las Viñas 03-09-2026 09:15 9,3 76 0 0 157 193 1027,4
37 Las Viñas 03-09-2026 09:00 8,8 73 0 0,4 157 197 1027,2
36 Las Viñas 03-09-2026 08:45 8,2 73 0 0,4 135 158 1027
35 Las Viñas 03-09-2026 08:30 7,8 74 0 0 17 139 1027
34 Las Viñas 03-09-2026 08:15 7 74 0 0 17 113 1026,8
33 Las Viñas 03-09-2026 08:00 6,2 76 0 0 17 51 1026,7
32 Las Viñas 03-09-2026 07:45 5,4 78 0 0 17 39 1026,4
31 Las Viñas 03-09-2026 07:30 5,2 81 0 0 17 21 1026,2
30 Las Viñas 03-09-2026 07:15 5,2 81 0 0 17 9 1026,1
29 Las Viñas 03-09-2026 07:00 5,3 81 0 0 17 0 1026,1
28 Las Viñas 03-09-2026 06:45 5,5 81 0 0 17 0 1025,9
27 Las Viñas 03-09-2026 06:30 5,7 82 0 0 17 0 1025,9
26 Las Viñas 03-09-2026 06:15 5,8 83 0 0 17 0 1025,8
25 Las Viñas 03-09-2026 06:00 6,2 82 0 0 17 0 1025,8
24 Las Viñas 03-09-2026 05:45 6,2 83 0 0 17 0 1025,6
23 Las Viñas 03-09-2026 05:30 6,4 84 0 0 17 0 1025,5
22 Las Viñas 03-09-2026 05:15 6,8 84 0 0 17 0 1025,3
21 Las Viñas 03-09-2026 05:00 7 84 0 0 17 0 1025,1
20 Las Viñas 03-09-2026 04:45 7,2 84 0 0 17 0 1025
19 Las Viñas 03-09-2026 04:30 7,6 84 0 0 17 0 1024,9
18 Las Viñas 03-09-2026 04:15 7,8 84 0 0 17 0 1024,9
17 Las Viñas 03-09-2026 04:00 8,1 84 0 0 17 0 1025
16 Las Viñas 03-09-2026 03:45 8,2 85 0 0 17 0 1024,9
15 Las Viñas 03-09-2026 03:30 8,3 85 0 0 17 0 1025
14 Las Viñas 03-09-2026 03:15 8,3 86 0 0 17 0 1024,8
13 Las Viñas 03-09-2026 03:00 8,4 86 0 0 17 0 1024,7
12 Las Viñas 03-09-2026 02:45 8,6 86 0 0 17 0 1024,7
11 Las Viñas 03-09-2026 02:30 8,6 87 0 0 17 0 1024,7
10 Las Viñas 03-09-2026 02:15 8,7 87 0 0 17 0 1024,5
9 Las Viñas 03-09-2026 02:00 8,8 87 0 0 17 0 1024,5
8 Las Viñas 03-09-2026 01:45 9 87 0 0 17 0 1024,5
7 Las Viñas 03-09-2026 01:30 9,1 87 0 0 17 0 1024,6
6 Las Viñas 03-09-2026 01:15 9,2 87 0 0 17 0 1024,5
5 Las Viñas 03-09-2026 01:00 9,2 87 0 0,4 350 0 1024,2
4 Las Viñas 03-09-2026 00:45 9,2 87 0 0,4 10 0 1024
3 Las Viñas 03-09-2026 00:30 9,2 88 0 0,9 311 0 1023,9
2 Las Viñas 03-09-2026 00:15 9,3 88 0 0,9 14 0 1023,8
1 Las Viñas 03-09-2026 00:00 9,6 87 0 1,3 16 0 1023,7